EPWR

Details ICAO EPWR (WRO)
Name STRACHOWICE
Region Poland
Timezone Europe/Warsaw (UTC+2.0)
Plans Departing 354
Arriving 291
Stats Elevation 404 ft / 123 m (AMSL)
Location 51.103882° 16.881892°
Runways 1
Magnetic Variation 4.669° E
Sunrise 2018-05-26 02:50:06 UTC / 2018-05-26 04:50:06 Local
Sunset 2018-05-26 18:51:48 UTC / 2018-05-26 20:51:48 Local
Advertisement - Login to hide

Runways

ID Width Length Bearing (true) Bearing (mag) Surface Threshold Offset Overrun Length
12 197 ft / 60 m 8,192 ft / 2,497 m 115.99° 111.32° Concrete 0 ft / 0 m 0 ft / 0 m
30 197 ft / 60 m 8,192 ft / 2,497 m 296.01° 291.34° Concrete 0 ft / 0 m 0 ft / 0 m

Approach Navaids

Runway Type Ident Frequency Range Bearing (true) Bearing (mag) Slope Elevation
30 Localiser WRO 110.30 MHz 18 nm / 33 km 295.98° 291.31° - 404 ft / 123 m (AMSL)
30 Glidescope WRO 110.30 MHz 10 nm / 19 km 296.00° 291.33° 3.00° 404 ft / 123 m (AMSL)
30 DME WRO 110.30 MHz 18 nm / 33 km - - - 394 ft / 120 m (AMSL)

Map

Weather


0- 5 10 15 20 25 30 35+ Temperature / ° C

Clouds and Precipitation
Forecast for 2018-05-26 00:00 UTC. Updated 2 hours ago

Ground ~20,000 ft ~40,000 ft Winds

METAR

EPWR 260100Z 02002KT CAVOK 12/10 Q1021

TAF

TAF EPWR 252330Z 2600/2624 09004KT CAVOK TEMPO 2601/2605 1400 BR PROB30 TEMPO 2601/2606 0500 FG PROB40 TEMPO 2611/2617 BKN024CB

Frequencies

Tower 127.22 MHz WROCLAW TWR
Warning: Do not use this data for real-world aviation or navigation. No guarantee of current accuracy is given.